Alorton, IL

6:25 PM CST on January 29, 2015 (GMT -0600)
Soulard | Change Station
CLOSE
Current Station
Personal Weather Station
Location: Saint Louis, MO
Elevation: 535 ft
Nearby Weather Stations
Active Advisory: Special Statement

Elev 535 ft 38.61 °N, 90.21 °W | Updated 1 minute ago

Overcast
Overcast
38.5 °F
Feels Like 35 °F
N
4.7
Wind Variable Wind from NW

Today
High -- | Low -- °F
--% Chance of Precip.
Yesterday
High -- | Low -- °F
Precip. -- in
7:08 AM 5:18 PM
Waxing Gibbous, 78% visible
Pressure 30.32 in
Visibility 10.0 miles
Clouds Overcast 2500 ft
Windchill 35 °F
Dew Point 30 °F
Humidity 71%
Rainfall 0.00 in
Snow Depth Not available.
UV 0 out of 12
Pollen 2.20 out of 12
Air Quality Not available.
Flu Activity Not available.
METAR KCPS 292353Z 33014G29KT 10SM OVC025 04/M01 A3032 RMK AO2 PK WND 32029/2344 SLP268 T00441006 10061 20044 53036

More Conditions Fewer Conditions

Pressure 30.32 in
Visibility 10.0 miles
Clouds Overcast 2500 ft
Windchill 35 °F
Dew Point 30 °F
Humidity 71%
Rainfall 0.00 in
Snow Depth Not available.
UV 0 out of 12
Pollen 2.20 out of 12
Air Quality Not available.
Flu Activity Not available.
METAR KCPS 292353Z 33014G29KT 10SM OVC025 04/M01 A3032 RMK AO2 PK WND 32029/2344 SLP268 T00441006 10061 20044 53036

More Conditions Fewer Conditions

10-Day Weather Forecast

Almanac

Astronomy

Jan. 29, 2015 Rise Set
Actual Time
Civil Twilight
Nautical Twilight
Astronomical Twilight
Moon
Length of Visible Light
Length of Day
Tomorrow will be .
, % of the Moon is Illuminated

Today's Extremes

State Highs State Lows

Community

WunderPhotos

Upload Photos

1,791,651 photos uploaded!

WunderBlogs® & News

Nearby

Air Quality

  Air Quality AQ Index Pollutant
Not available.

Snow Depth

Station Depth Elevation

Earthquake Activity

City Distance Mag. Time & Date
Minimum magnitude displayed is 2.5.

Coastal Water Temperatures

Place Temperature

Nearby Weather Stations